createdAt,value
2022-07-26T00:02:19.460Z,0.50
2022-07-26T00:04:47.204Z,0.73
2022-07-26T00:07:18.960Z,0.50
2022-07-26T00:09:57.099Z,0.60
2022-07-26T00:12:24.627Z,0.50
2022-07-26T00:14:54.771Z,0.47
2022-07-26T00:17:22.559Z,0.50
2022-07-26T00:19:50.923Z,0.50
2022-07-26T00:22:36.638Z,0.50
2022-07-26T00:25:07.257Z,0.50
2022-07-26T00:27:38.386Z,0.50
2022-07-26T00:30:08.282Z,0.40
2022-07-26T00:32:36.024Z,0.40
2022-07-26T00:35:04.888Z,0.60
2022-07-26T00:37:32.955Z,0.63
2022-07-26T00:40:03.804Z,0.52
2022-07-26T00:42:32.130Z,0.52
2022-07-26T00:44:59.830Z,0.50
2022-07-26T00:47:32.080Z,0.52
2022-07-26T00:50:00.957Z,0.50
2022-07-26T00:52:29.364Z,0.60
2022-07-26T00:54:59.110Z,0.40
2022-07-26T00:57:28.476Z,0.60
2022-07-26T01:00:01.863Z,0.45
2022-07-26T01:02:29.424Z,0.55
2022-07-26T01:04:57.871Z,0.70
2022-07-26T01:07:27.259Z,0.63
2022-07-26T01:09:58.507Z,0.50
2022-07-26T01:12:26.895Z,0.60
2022-07-26T01:14:56.005Z,0.60
2022-07-26T01:17:24.126Z,0.50
2022-07-26T01:19:53.478Z,0.60
2022-07-26T01:22:21.729Z,0.50
2022-07-26T01:24:49.158Z,0.80
2022-07-26T01:29:59.359Z,0.50
2022-07-26T01:32:26.727Z,0.63
2022-07-26T01:34:54.272Z,0.50
2022-07-26T01:37:21.557Z,0.40
2022-07-26T01:39:49.749Z,0.40
2022-07-26T01:42:18.080Z,0.40
2022-07-26T01:44:45.542Z,0.40
2022-07-26T01:47:13.084Z,0.60
2022-07-26T01:49:40.460Z,0.50
2022-07-26T01:52:08.224Z,0.60
2022-07-26T01:54:38.174Z,0.65
2022-07-26T01:57:05.711Z,0.60
2022-07-26T01:59:33.585Z,0.50
2022-07-26T02:02:01.122Z,0.40
2022-07-26T02:04:47.123Z,0.40
2022-07-26T02:07:14.658Z,0.40
2022-07-26T02:09:42.030Z,0.77
2022-07-26T02:12:10.153Z,0.82
2022-07-26T02:14:37.784Z,0.60
2022-07-26T02:17:06.542Z,0.70
2022-07-26T02:19:34.164Z,0.50
2022-07-26T02:22:02.086Z,0.50
2022-07-26T02:24:30.336Z,0.40
2022-07-26T02:27:01.396Z,0.40
2022-07-26T02:29:30.093Z,0.60
2022-07-26T02:31:59.502Z,0.50
2022-07-26T02:34:29.908Z,0.50
2022-07-26T02:37:00.072Z,0.50
2022-07-26T02:39:30.578Z,0.60
2022-07-26T02:41:59.949Z,0.75
2022-07-26T02:44:28.094Z,0.60
2022-07-26T02:46:57.088Z,0.52
2022-07-26T02:49:24.520Z,0.50
2022-07-26T02:51:52.792Z,0.50
2022-07-26T02:54:21.451Z,0.52
2022-07-26T02:56:49.012Z,0.63
2022-07-26T02:59:16.283Z,0.70
2022-07-26T03:01:43.827Z,0.45
2022-07-26T03:04:11.459Z,0.50
2022-07-26T03:06:39.250Z,0.60
2022-07-26T03:09:06.605Z,0.80
2022-07-26T03:11:34.284Z,0.73
2022-07-26T03:14:02.103Z,0.70
2022-07-26T03:16:30.086Z,0.80
2022-07-26T03:18:58.281Z,0.60
2022-07-26T03:21:25.735Z,0.57
2022-07-26T03:23:53.744Z,0.70
2022-07-26T03:26:21.359Z,0.80
2022-07-26T03:28:49.593Z,0.60
2022-07-26T03:31:16.929Z,0.70
2022-07-26T03:33:44.408Z,0.40
2022-07-26T03:36:15.507Z,0.75
2022-07-26T03:38:43.654Z,0.70
2022-07-26T03:41:13.749Z,0.70
2022-07-26T03:43:41.481Z,0.50
2022-07-26T03:46:09.205Z,0.45
2022-07-26T03:48:36.626Z,0.50
2022-07-26T03:51:04.231Z,0.70
2022-07-26T03:53:33.740Z,0.63
2022-07-26T03:56:19.772Z,0.70
2022-07-26T03:58:47.795Z,0.65
2022-07-26T04:01:15.176Z,0.68
2022-07-26T04:03:47.563Z,0.70
2022-07-26T04:06:15.765Z,0.70
2022-07-26T04:08:43.430Z,0.80
2022-07-26T04:11:10.990Z,0.60
2022-07-26T04:13:38.236Z,0.82
2022-07-26T04:16:08.437Z,0.50
2022-07-26T04:18:35.772Z,0.50
2022-07-26T04:21:03.509Z,0.63
2022-07-26T04:23:32.166Z,0.32
2022-07-26T04:26:00.959Z,0.60
2022-07-26T04:28:29.568Z,0.70
2022-07-26T04:30:58.216Z,0.57
2022-07-26T04:33:26.665Z,0.50
2022-07-26T04:35:55.673Z,0.60
2022-07-26T04:38:23.344Z,0.40
2022-07-26T04:40:51.558Z,0.55
2022-07-26T04:43:19.214Z,0.38
2022-07-26T04:45:47.523Z,0.40
2022-07-26T04:48:16.521Z,0.38
2022-07-26T04:50:44.479Z,0.70
2022-07-26T04:53:12.412Z,0.70
2022-07-26T04:55:40.927Z,0.52
2022-07-26T04:58:11.572Z,0.90
2022-07-26T05:01:02.870Z,0.40
2022-07-26T05:03:37.052Z,0.70
2022-07-26T05:06:07.278Z,0.47
2022-07-26T05:08:35.843Z,0.50
2022-07-26T05:11:04.407Z,0.60
2022-07-26T05:13:31.870Z,0.50
2022-07-26T05:16:00.376Z,0.60
2022-07-26T05:18:46.068Z,0.60
2022-07-26T05:21:21.270Z,0.52
2022-07-26T05:23:49.917Z,0.50
2022-07-26T05:26:19.956Z,0.70
2022-07-26T05:28:50.656Z,0.70
2022-07-26T05:31:19.932Z,0.63
2022-07-26T05:41:57.754Z,0.70
2022-07-26T05:44:27.621Z,0.80
2022-07-26T05:46:58.770Z,0.70
2022-07-26T05:49:26.653Z,0.63
2022-07-26T05:52:07.463Z,0.65
2022-07-26T05:54:35.269Z,0.90
2022-07-26T05:57:03.711Z,0.80
2022-07-26T05:59:31.872Z,0.70
2022-07-26T06:02:01.689Z,0.75
2022-07-26T06:04:29.474Z,0.60
2022-07-26T06:06:57.397Z,0.70
2022-07-26T06:09:25.371Z,1.00
2022-07-26T06:11:53.183Z,0.93
2022-07-26T06:14:22.204Z,0.95
2022-07-26T06:16:50.587Z,0.80
2022-07-26T06:19:18.479Z,0.70
2022-07-26T06:21:49.717Z,0.88
2022-07-26T06:24:17.661Z,0.77
2022-07-26T06:29:32.164Z,0.93
2022-07-26T06:32:00.993Z,0.90
2022-07-26T06:34:29.618Z,0.65
2022-07-26T06:36:57.190Z,0.60
2022-07-26T06:39:25.113Z,1.25
2022-07-26T06:41:52.615Z,1.10
2022-07-26T06:44:27.234Z,1.27
2022-07-26T06:46:56.238Z,1.25
2022-07-26T06:49:25.539Z,1.02
2022-07-26T06:51:53.248Z,0.80
2022-07-26T06:54:21.163Z,1.23
2022-07-26T06:56:51.804Z,0.93
2022-07-26T06:59:23.759Z,1.25
2022-07-26T07:01:59.610Z,1.10
2022-07-26T07:10:01.295Z,1.00
2022-07-26T07:12:29.176Z,0.65
2022-07-26T07:15:01.691Z,1.20
2022-07-26T07:17:29.507Z,0.75
2022-07-26T07:19:57.115Z,0.60
2022-07-26T07:22:24.983Z,0.73
2022-07-26T07:24:54.513Z,1.00
2022-07-26T07:32:56.956Z,1.02
2022-07-26T07:35:32.055Z,1.05
2022-07-26T07:40:43.392Z,0.95
2022-07-26T07:43:12.394Z,0.95
2022-07-26T07:45:43.792Z,1.00
2022-07-26T07:50:59.609Z,0.80
2022-07-26T07:53:28.364Z,0.88
2022-07-26T07:58:48.459Z,0.63
2022-07-26T08:01:21.430Z,1.08
2022-07-26T08:06:32.714Z,0.98
2022-07-26T08:09:13.326Z,0.85
2022-07-26T08:14:30.823Z,1.10
2022-07-26T08:17:05.101Z,0.85
2022-07-26T08:19:41.500Z,1.30
2022-07-26T08:24:56.704Z,1.10
2022-07-26T08:27:26.777Z,1.23
2022-07-26T08:29:55.854Z,0.85
2022-07-26T08:32:23.584Z,1.20
2022-07-26T08:34:52.267Z,1.08
2022-07-26T08:37:20.007Z,1.20
2022-07-26T08:39:52.040Z,1.00
2022-07-26T08:42:23.137Z,1.08
2022-07-26T08:45:01.089Z,1.63
2022-07-26T08:50:18.588Z,1.15
2022-07-26T08:52:47.133Z,0.90
2022-07-26T09:00:47.130Z,0.80
2022-07-26T09:06:25.518Z,0.60
2022-07-26T09:09:13.435Z,0.82
2022-07-26T09:14:24.319Z,0.70
2022-07-26T09:19:42.938Z,0.70
2022-07-26T09:22:26.983Z,0.70
2022-07-26T09:25:01.427Z,0.98
2022-07-26T09:27:38.104Z,0.70
2022-07-26T09:38:27.170Z,0.50
2022-07-26T09:46:25.061Z,0.70
2022-07-26T09:49:11.262Z,0.70
2022-07-26T09:51:40.957Z,0.60
2022-07-26T09:54:13.588Z,0.57
2022-07-26T09:56:58.339Z,0.60
2022-07-26T09:59:28.464Z,0.60
2022-07-26T10:01:58.373Z,0.80
2022-07-26T10:07:13.920Z,0.65
2022-07-26T10:10:12.093Z,0.60
2022-07-26T10:12:40.604Z,0.90
2022-07-26T10:15:37.191Z,0.70
2022-07-26T10:18:09.379Z,0.65
2022-07-26T10:20:49.448Z,0.60
2022-07-26T10:23:42.920Z,0.57
2022-07-26T10:26:17.658Z,0.80
2022-07-26T10:28:45.875Z,0.40
2022-07-26T10:31:32.230Z,0.70
2022-07-26T10:36:43.293Z,0.60
2022-07-26T10:39:14.770Z,0.63
2022-07-26T10:41:59.718Z,0.50
2022-07-26T10:47:24.835Z,0.50
2022-07-26T10:52:58.875Z,0.60
2022-07-26T10:55:28.892Z,0.77
2022-07-26T10:58:04.542Z,0.80
2022-07-26T11:00:36.261Z,0.50
2022-07-26T11:05:47.058Z,0.80
2022-07-26T11:08:22.772Z,0.70
2022-07-26T11:10:51.126Z,0.80
2022-07-26T11:16:12.668Z,0.80
2022-07-26T11:21:35.657Z,0.70
2022-07-26T11:24:05.521Z,0.60
2022-07-26T11:26:43.093Z,0.77
2022-07-26T11:29:17.076Z,0.70
2022-07-26T11:31:59.944Z,0.70
2022-07-26T11:45:26.268Z,0.80
2022-07-26T11:47:59.300Z,0.60
2022-07-26T11:53:23.597Z,0.30
2022-07-26T11:55:54.031Z,0.30
2022-07-26T11:58:25.084Z,0.30
2022-07-26T12:03:37.170Z,0.30
2022-07-26T12:06:11.970Z,0.38
2022-07-26T12:14:34.291Z,0.50
2022-07-26T12:17:22.082Z,0.40
2022-07-26T12:19:49.966Z,0.40
2022-07-26T12:22:28.658Z,0.40
2022-07-26T12:30:44.776Z,0.50
2022-07-26T12:33:13.478Z,0.40
2022-07-26T12:38:44.432Z,0.40
2022-07-26T12:41:37.389Z,0.60
2022-07-26T12:44:12.968Z,0.40
2022-07-26T12:46:45.226Z,0.40
2022-07-26T12:49:18.460Z,0.75
2022-07-26T12:51:48.873Z,0.55
2022-07-26T12:54:18.991Z,0.35
2022-07-26T12:56:47.435Z,0.40
2022-07-26T12:59:17.658Z,0.30
2022-07-26T13:01:45.563Z,0.50
2022-07-26T13:04:14.152Z,0.50
2022-07-26T13:06:43.359Z,0.47
2022-07-26T13:09:12.315Z,0.40
2022-07-26T13:11:40.411Z,0.30
2022-07-26T13:14:08.359Z,0.40
2022-07-26T13:16:38.765Z,0.50
2022-07-26T13:19:08.331Z,0.50
2022-07-26T13:21:39.433Z,0.50
2022-07-26T13:24:17.261Z,0.40
2022-07-26T13:26:48.469Z,0.30
2022-07-26T13:29:16.924Z,0.57
2022-07-26T13:31:48.883Z,0.30
2022-07-26T13:34:16.404Z,0.22
2022-07-26T13:36:44.168Z,0.40
2022-07-26T13:39:18.486Z,0.40
2022-07-26T13:41:46.370Z,0.50
2022-07-26T13:44:14.974Z,0.30
2022-07-26T13:46:43.791Z,0.30
2022-07-26T13:49:15.190Z,0.50
2022-07-26T13:52:01.286Z,0.40
2022-07-26T13:54:33.080Z,0.40
2022-07-26T13:57:05.529Z,0.40
2022-07-26T13:59:33.320Z,0.40
2022-07-26T14:02:00.874Z,0.50
2022-07-26T14:04:29.211Z,0.35
2022-07-26T14:06:57.999Z,0.40
2022-07-26T14:09:26.039Z,0.45
2022-07-26T14:11:53.465Z,0.30
2022-07-26T14:14:21.807Z,0.40
2022-07-26T14:16:49.910Z,0.50
2022-07-26T14:19:19.098Z,0.38
2022-07-26T14:22:00.000Z,0.40
2022-07-26T14:24:29.496Z,0.40
2022-07-26T14:26:59.441Z,0.43
2022-07-26T14:29:29.164Z,0.43
2022-07-26T14:31:57.590Z,0.43
2022-07-26T14:34:25.374Z,0.40
2022-07-26T14:36:53.012Z,0.50
2022-07-26T14:42:04.189Z,0.60
2022-07-26T14:44:32.359Z,0.80
2022-07-26T14:47:02.371Z,0.77
2022-07-26T14:49:35.074Z,0.68
2022-07-26T14:52:03.154Z,0.70
2022-07-26T14:54:33.538Z,0.60
2022-07-26T14:57:02.303Z,0.40
2022-07-26T14:59:29.934Z,0.47
2022-07-26T15:01:59.502Z,0.70
2022-07-26T15:04:30.157Z,0.50
2022-07-26T15:06:59.736Z,0.73
2022-07-26T15:09:27.245Z,0.50
2022-07-26T15:11:55.073Z,0.65
2022-07-26T15:14:24.178Z,0.82
2022-07-26T15:16:52.233Z,0.50
2022-07-26T15:19:25.233Z,0.88
2022-07-26T15:21:55.641Z,0.55
2022-07-26T15:24:25.415Z,0.70
2022-07-26T15:26:52.958Z,0.73
2022-07-26T15:29:20.978Z,0.63
2022-07-26T15:31:49.877Z,0.73
2022-07-26T15:34:17.665Z,0.80
2022-07-26T15:36:45.773Z,0.60
2022-07-26T15:39:18.306Z,0.80
2022-07-26T15:41:51.060Z,0.70
2022-07-26T15:44:26.240Z,0.70
2022-07-26T15:46:55.097Z,0.70
2022-07-26T15:49:25.315Z,0.60
2022-07-26T15:51:56.074Z,0.60
2022-07-26T15:54:23.612Z,0.63
2022-07-26T15:56:51.429Z,0.70
2022-07-26T15:59:22.587Z,0.60
2022-07-26T16:01:50.025Z,0.50
2022-07-26T16:04:21.106Z,0.75
2022-07-26T16:06:49.219Z,0.70
2022-07-26T16:09:18.532Z,0.60
2022-07-26T16:11:50.487Z,0.68
2022-07-26T16:14:19.169Z,0.75
2022-07-26T16:16:47.074Z,0.63
2022-07-26T16:19:16.702Z,0.60
2022-07-26T16:21:44.909Z,0.75
2022-07-26T16:24:12.661Z,0.50
2022-07-26T16:26:45.328Z,0.63
2022-07-26T16:29:16.041Z,0.50
2022-07-26T16:31:45.914Z,0.70
2022-07-26T16:34:15.053Z,0.98
2022-07-26T16:36:43.602Z,0.65
2022-07-26T16:39:13.995Z,0.52
2022-07-26T16:41:42.381Z,0.70
2022-07-26T16:44:12.785Z,0.68
2022-07-26T16:46:42.477Z,0.90
2022-07-26T16:49:13.135Z,0.70
2022-07-26T16:51:42.650Z,0.68
2022-07-26T16:54:10.619Z,0.80
2022-07-26T16:56:39.080Z,0.60
2022-07-26T16:59:11.966Z,0.50
2022-07-26T17:04:39.501Z,0.80
2022-07-26T17:07:24.693Z,0.70
2022-07-26T17:09:53.403Z,0.85
2022-07-26T17:12:26.814Z,0.70
2022-07-26T17:15:01.986Z,0.55
2022-07-26T17:17:34.329Z,0.70
2022-07-26T17:20:02.006Z,0.50
2022-07-26T17:25:13.697Z,0.55
2022-07-26T17:30:22.848Z,0.60
2022-07-26T17:32:50.937Z,0.60
2022-07-26T17:35:20.513Z,0.63
2022-07-26T17:37:48.106Z,0.40
2022-07-26T17:40:16.561Z,0.60
2022-07-26T17:42:44.715Z,0.70
2022-07-26T17:45:12.435Z,0.70
2022-07-26T17:47:40.026Z,0.68
2022-07-26T17:50:36.621Z,0.60
2022-07-26T17:52:59.578Z,0.50
2022-07-26T17:55:27.274Z,0.60
2022-07-26T17:57:55.566Z,0.60
2022-07-26T18:00:28.806Z,0.60
2022-07-26T18:02:58.919Z,0.80
2022-07-26T18:05:34.936Z,0.70
2022-07-26T18:08:05.128Z,0.68
2022-07-26T18:10:33.125Z,0.70
2022-07-26T18:13:01.597Z,0.73
2022-07-26T18:15:30.887Z,0.60
2022-07-26T18:18:00.458Z,0.60
2022-07-26T18:20:28.136Z,0.60
2022-07-26T18:22:56.995Z,0.57
2022-07-26T18:25:24.967Z,0.68
2022-07-26T18:27:55.831Z,0.50
2022-07-26T18:30:23.877Z,0.60
2022-07-26T18:32:51.969Z,0.80
2022-07-26T18:35:19.516Z,0.65
2022-07-26T18:37:47.358Z,0.98
2022-07-26T18:40:15.008Z,0.63
2022-07-26T18:42:44.271Z,0.50
2022-07-26T18:45:11.669Z,0.70
2022-07-26T18:47:40.264Z,0.80
2022-07-26T18:50:09.011Z,0.60
2022-07-26T18:52:36.397Z,0.60
2022-07-26T18:55:07.564Z,0.82
2022-07-26T19:00:29.585Z,0.70
2022-07-26T19:02:57.921Z,0.70
2022-07-26T19:05:25.587Z,0.75
2022-07-26T19:08:02.579Z,0.68
2022-07-26T19:10:30.021Z,0.77
2022-07-26T19:12:57.807Z,0.77
2022-07-26T19:15:25.261Z,0.80
2022-07-26T19:17:52.974Z,0.88
2022-07-26T19:20:21.750Z,0.73
2022-07-26T19:22:51.121Z,0.70
2022-07-26T19:25:18.973Z,0.90
2022-07-26T19:27:47.109Z,0.70
2022-07-26T19:30:16.184Z,0.60
2022-07-26T19:32:43.704Z,0.70
2022-07-26T19:35:11.351Z,0.60
2022-07-26T19:37:41.755Z,0.70
2022-07-26T19:40:13.883Z,0.52
2022-07-26T19:42:45.011Z,0.60
2022-07-26T19:45:23.012Z,0.55
2022-07-26T19:47:51.605Z,0.70
2022-07-26T19:50:20.170Z,0.50
2022-07-26T19:52:47.772Z,0.60
2022-07-26T19:55:19.026Z,0.80
2022-07-26T19:57:46.723Z,0.70
2022-07-26T20:00:14.654Z,0.77
2022-07-26T20:02:42.591Z,0.63
2022-07-26T20:05:12.348Z,0.80
2022-07-26T20:07:39.837Z,0.68
2022-07-26T20:10:09.403Z,0.70
2022-07-26T20:12:39.841Z,0.50
2022-07-26T20:15:09.944Z,0.60
2022-07-26T20:17:39.976Z,0.50
2022-07-26T20:20:10.159Z,0.40
2022-07-26T20:22:38.457Z,0.70
2022-07-26T20:25:08.041Z,0.40
2022-07-26T20:27:35.643Z,0.40
2022-07-26T20:30:03.712Z,0.43
2022-07-26T20:32:32.083Z,0.60
2022-07-26T20:34:59.737Z,0.60
2022-07-26T20:37:27.534Z,0.60
2022-07-26T20:39:55.165Z,0.38
2022-07-26T20:42:24.878Z,0.50
2022-07-26T20:44:55.515Z,0.40
2022-07-26T20:47:23.276Z,0.50
2022-07-26T20:49:52.650Z,0.50
2022-07-26T20:52:20.022Z,0.40
2022-07-26T20:54:47.785Z,0.60
2022-07-26T20:57:15.458Z,0.77
2022-07-26T20:59:43.137Z,0.70
2022-07-26T21:02:12.481Z,0.57
2022-07-26T21:04:42.001Z,0.52
2022-07-26T21:07:09.609Z,0.70
2022-07-26T21:09:37.696Z,0.60
2022-07-26T21:12:07.919Z,0.63
2022-07-26T21:14:35.637Z,0.60
2022-07-26T21:17:09.257Z,0.50
2022-07-26T21:19:41.214Z,0.50
2022-07-26T21:22:09.495Z,0.43
2022-07-26T21:24:37.472Z,0.60
2022-07-26T21:27:06.156Z,0.60
2022-07-26T21:29:43.375Z,0.47
2022-07-26T21:32:12.588Z,0.50
2022-07-26T21:34:40.426Z,0.40
2022-07-26T21:37:10.525Z,0.52
2022-07-26T21:39:38.093Z,0.40
2022-07-26T21:42:05.794Z,0.63
2022-07-26T21:44:33.812Z,0.50
2022-07-26T21:47:01.659Z,0.40
2022-07-26T21:49:29.151Z,0.50
2022-07-26T21:51:57.203Z,0.50
2022-07-26T21:54:24.810Z,0.65
2022-07-26T21:56:53.391Z,0.40
2022-07-26T21:59:21.236Z,0.50
2022-07-26T22:01:48.944Z,0.40
2022-07-26T22:04:18.145Z,0.50
2022-07-26T22:06:46.184Z,0.45
2022-07-26T22:09:14.064Z,0.60
2022-07-26T22:11:41.982Z,0.40
2022-07-26T22:14:10.046Z,0.40
2022-07-26T22:16:37.730Z,0.65
2022-07-26T22:19:06.474Z,0.40
2022-07-26T22:21:35.359Z,0.65
2022-07-26T22:24:03.558Z,0.50
2022-07-26T22:26:32.689Z,0.63
2022-07-26T22:29:00.600Z,0.75
2022-07-26T22:31:30.464Z,0.60
2022-07-26T22:33:59.236Z,0.70
2022-07-26T22:36:27.312Z,0.60
2022-07-26T22:38:54.835Z,0.60
2022-07-26T22:41:22.185Z,0.40
2022-07-26T22:43:50.928Z,0.70
2022-07-26T22:46:27.584Z,0.40
2022-07-26T22:48:55.500Z,0.35
2022-07-26T22:51:23.236Z,0.38
2022-07-26T22:53:50.978Z,0.40
2022-07-26T22:56:19.684Z,0.50
2022-07-26T22:58:47.754Z,0.40
2022-07-26T23:01:19.231Z,0.40
2022-07-26T23:03:49.542Z,0.40
2022-07-26T23:06:31.143Z,0.50
2022-07-26T23:09:00.546Z,0.50
2022-07-26T23:11:28.330Z,0.68
2022-07-26T23:14:01.176Z,0.45
2022-07-26T23:16:28.797Z,0.80
2022-07-26T23:18:56.212Z,0.57
2022-07-26T23:21:24.110Z,0.55
2022-07-26T23:23:51.785Z,0.80
2022-07-26T23:26:19.483Z,0.50
2022-07-26T23:28:46.872Z,0.50
2022-07-26T23:31:14.946Z,0.60
2022-07-26T23:33:50.829Z,0.50
2022-07-26T23:36:26.561Z,0.50
2022-07-26T23:38:56.747Z,0.47
2022-07-26T23:41:24.639Z,0.65
2022-07-26T23:43:53.894Z,0.60
2022-07-26T23:46:22.639Z,0.40
2022-07-26T23:48:50.850Z,0.40
2022-07-26T23:51:23.200Z,0.52
2022-07-26T23:53:51.751Z,0.60
2022-07-26T23:56:19.703Z,0.70
2022-07-26T23:58:47.767Z,0.40
